Aérodrome :
LOGIN :

S'inscrire | Disclaimer

   EN    FR    IT 

 










Légende :    VFR   VFR Marginal   IFR   IFR Intensif   IFR Très Intensif
Visi : 
Plafond : 
>= 8 km
>= 3000ft
5 à 8 km
1000 à 3000 ft
1500m à 5 km
500 à 1000 ft
800 à 1500m
200 à 500 ft
< 800m
< 200 ft
Symboles :   Orages  Brouillard  Fortes neiges  Fortes précipitations  Vent > 20 kt
SIGMETs :   Divers  Orages  Givrage  Turbulence  Onde Orograph.  Cendres Volcan.






- Altitude de l'aérodrome : 287 ft


LFRL - Lanveoc Poulmic

DERNIER METAR :
  • 051030Z AUTO 27011KT 9999 BKN006 OVC016 17/16 Q1020

METARs EXPIRÉS :
  • 051000Z AUTO 28013KT 2700 -DZ BR OVC004 17/16 Q1019
  • 050930Z AUTO 26012KT 9999 OVC004 17/17 Q1019
  • 050900Z AUTO 25013KT 1600 R05/1400U -DZ BR OVC002 16/16 Q1019
  • 050830Z AUTO 26011KT 3900 BR OVC003 16/16 Q1019
  • 050800Z AUTO 25012KT 210V270 1200 0700 R23/1600N R05/1200D -DZ BCFG OVC002 16/16 Q1019

Prévision TAF périmée.



MET'MAP, la Météo Aéronautique d'un coup d'oeil ! - Copyright ORBIFLY Décembre 2007 - Disclaimer

ORBIFLY MET'MAP TEAM :

Programmation & Développement : Alexandra Zaïnal
Sur une idée originale de : Baudouin d'Aumeries
Assistance à la programmation : Marc-Olivier Méhu
Soutien technique & logistique : Manuel Goepfert

Contact : metmap@orbifly.com




SOURCES & CREDITS :

   NOAA